createdAt,value
2018-05-26T00:01:34.678Z,99.90
2018-05-26T00:04:07.496Z,99.90
2018-05-26T00:06:35.796Z,99.90
2018-05-26T00:09:05.597Z,99.90
2018-05-26T00:11:33.147Z,99.90
2018-05-26T00:14:01.668Z,99.90
2018-05-26T00:16:31.632Z,99.90
2018-05-26T00:19:04.995Z,99.90
2018-05-26T00:21:39.163Z,99.90
2018-05-26T00:24:09.489Z,99.90
2018-05-26T00:26:38.643Z,99.90
2018-05-26T00:29:09.208Z,99.90
2018-05-26T00:31:37.645Z,99.90
2018-05-26T00:34:06.413Z,99.90
2018-05-26T00:36:41.686Z,99.90
2018-05-26T00:39:15.730Z,99.90
2018-05-26T00:41:43.315Z,99.90
2018-05-26T00:44:15.494Z,99.90
2018-05-26T00:46:43.525Z,99.90
2018-05-26T00:49:11.819Z,99.90
2018-05-26T00:51:41.174Z,99.90
2018-05-26T00:54:08.763Z,99.90
2018-05-26T00:56:39.737Z,99.90
2018-05-26T00:59:08.179Z,99.90
2018-05-26T01:01:37.176Z,99.90
2018-05-26T01:04:06.262Z,99.90
2018-05-26T01:06:35.059Z,99.90
2018-05-26T01:09:02.652Z,99.90
2018-05-26T01:11:31.720Z,99.90
2018-05-26T01:14:00.161Z,99.90
2018-05-26T01:16:27.688Z,99.90
2018-05-26T01:19:05.530Z,99.90
2018-05-26T01:24:07.995Z,99.90
2018-05-26T01:26:35.605Z,99.90
2018-05-26T01:29:12.638Z,99.90
2018-05-26T01:34:19.001Z,99.90
2018-05-26T01:36:49.705Z,99.90
2018-05-26T01:39:17.258Z,99.90
2018-05-26T01:41:52.681Z,99.90
2018-05-26T01:44:21.004Z,99.90
2018-05-26T01:46:50.023Z,99.90
2018-05-26T01:51:54.502Z,99.90
2018-05-26T01:54:25.485Z,99.90
2018-05-26T01:56:52.951Z,99.90
2018-05-26T01:59:20.825Z,99.90
2018-05-26T02:04:41.765Z,99.90
2018-05-26T02:07:13.392Z,99.90
2018-05-26T02:09:42.003Z,99.90
2018-05-26T02:12:13.397Z,99.90
2018-05-26T02:14:40.909Z,99.90
2018-05-26T02:17:09.980Z,99.90
2018-05-26T02:19:43.951Z,99.90
2018-05-26T02:22:12.161Z,99.90
2018-05-26T02:24:40.489Z,99.90
2018-05-26T02:27:16.508Z,99.90
2018-05-26T02:29:45.234Z,99.90
2018-05-26T02:32:12.833Z,99.90
2018-05-26T02:34:42.618Z,99.90
2018-05-26T02:37:10.892Z,99.90
2018-05-26T02:39:38.414Z,99.90
2018-05-26T02:42:06.039Z,99.90
2018-05-26T02:44:33.653Z,99.90
2018-05-26T02:47:09.442Z,99.90
2018-05-26T02:49:38.163Z,99.90
2018-05-26T02:52:14.677Z,99.90
2018-05-26T02:54:44.991Z,99.90
2018-05-26T02:57:13.517Z,99.90
2018-05-26T02:59:41.110Z,99.90
2018-05-26T03:04:49.633Z,99.90
2018-05-26T03:07:22.893Z,99.90
2018-05-26T03:09:58.528Z,99.90
2018-05-26T03:12:33.205Z,99.90
2018-05-26T03:15:00.883Z,99.90
2018-05-26T03:17:45.178Z,99.90
2018-05-26T03:20:13.784Z,99.90
2018-05-26T03:22:41.380Z,99.90
2018-05-26T03:25:10.023Z,99.90
2018-05-26T03:27:37.565Z,99.90
2018-05-26T03:30:07.666Z,99.90
2018-05-26T03:32:36.036Z,99.90
2018-05-26T03:35:07.109Z,99.90
2018-05-26T03:37:41.061Z,99.90
2018-05-26T03:40:17.317Z,99.90
2018-05-26T03:42:46.026Z,99.90
2018-05-26T03:45:23.228Z,99.90
2018-05-26T03:47:52.718Z,99.90
2018-05-26T03:50:20.897Z,99.90
2018-05-26T03:52:49.590Z,99.90
2018-05-26T03:58:57.944Z,99.90
2018-05-26T04:01:27.553Z,99.90
2018-05-26T04:03:57.865Z,99.90
2018-05-26T04:06:25.503Z,99.90
2018-05-26T04:08:54.771Z,99.90
2018-05-26T04:11:22.351Z,99.90
2018-05-26T04:13:51.551Z,99.90
2018-05-26T04:16:20.283Z,99.90
2018-05-26T04:18:48.582Z,99.90
2018-05-26T04:21:16.917Z,99.90
2018-05-26T04:23:47.589Z,99.90
2018-05-26T04:26:15.120Z,99.90
2018-05-26T04:28:52.496Z,99.90
2018-05-26T04:31:21.167Z,99.90
2018-05-26T04:33:55.265Z,99.90
2018-05-26T04:36:25.088Z,99.90
2018-05-26T04:38:56.060Z,99.90
2018-05-26T04:43:57.235Z,99.90
2018-05-26T04:46:26.487Z,99.90
2018-05-26T04:48:54.348Z,99.90
2018-05-26T04:51:24.032Z,99.90
2018-05-26T04:53:52.512Z,99.90
2018-05-26T04:56:21.496Z,99.90
2018-05-26T04:58:50.050Z,99.90
2018-05-26T05:01:21.972Z,99.90
2018-05-26T05:03:49.491Z,99.90
2018-05-26T05:06:19.144Z,99.90
2018-05-26T05:08:51.235Z,99.90
2018-05-26T05:11:21.943Z,99.90
2018-05-26T05:13:52.914Z,99.90
2018-05-26T05:16:20.415Z,99.90
2018-05-26T05:18:50.683Z,99.90
2018-05-26T05:21:20.489Z,99.90
2018-05-26T05:23:50.244Z,99.90
2018-05-26T05:26:30.677Z,99.90
2018-05-26T05:29:02.414Z,99.90
2018-05-26T05:31:38.076Z,99.90
2018-05-26T05:34:05.688Z,99.90
2018-05-26T05:36:40.935Z,99.90
2018-05-26T05:39:14.047Z,99.90
2018-05-26T05:41:42.693Z,99.90
2018-05-26T05:44:17.509Z,99.90
2018-05-26T05:46:46.945Z,99.90
2018-05-26T05:49:18.684Z,99.90
2018-05-26T05:51:52.005Z,99.90
2018-05-26T05:57:02.723Z,99.90
2018-05-26T05:59:40.264Z,99.90
2018-05-26T06:02:08.657Z,99.90
2018-05-26T06:04:37.780Z,99.90
2018-05-26T06:07:22.582Z,99.90
2018-05-26T06:09:54.460Z,99.90
2018-05-26T06:12:25.080Z,99.90
2018-05-26T06:15:00.081Z,99.90
2018-05-26T06:17:35.894Z,99.90
2018-05-26T06:20:06.942Z,99.90
2018-05-26T06:22:39.345Z,99.90
2018-05-26T06:25:14.116Z,99.90
2018-05-26T06:27:42.344Z,99.90
2018-05-26T06:30:12.398Z,99.90
2018-05-26T06:32:40.918Z,99.90
2018-05-26T06:35:10.626Z,99.90
2018-05-26T06:37:41.785Z,99.90
2018-05-26T06:40:09.866Z,99.90
2018-05-26T06:42:40.060Z,99.90
2018-05-26T06:45:07.585Z,99.90
2018-05-26T06:47:40.811Z,99.90
2018-05-26T06:50:08.333Z,99.40
2018-05-26T06:52:35.830Z,99.50
2018-05-26T06:55:03.313Z,98.80
2018-05-26T06:57:31.498Z,98.80
2018-05-26T06:59:58.982Z,97.90
2018-05-26T07:02:26.494Z,97.20
2018-05-26T07:04:53.997Z,96.50
2018-05-26T07:07:23.248Z,97.80
2018-05-26T07:09:50.721Z,96.10
2018-05-26T07:12:18.603Z,95.50
2018-05-26T07:14:46.124Z,95.20
2018-05-26T07:17:14.213Z,93.90
2018-05-26T07:19:43.153Z,94.40
2018-05-26T07:22:11.430Z,93.90
2018-05-26T07:24:38.954Z,94.60
2018-05-26T07:27:06.635Z,94.70
2018-05-26T07:29:34.086Z,95.10
2018-05-26T07:32:01.639Z,93.70
2018-05-26T07:34:29.121Z,92.50
2018-05-26T07:36:57.376Z,92.50
2018-05-26T07:39:24.944Z,92.50
2018-05-26T07:41:52.433Z,93.80
2018-05-26T07:44:20.363Z,95.00
2018-05-26T07:46:47.875Z,93.80
2018-05-26T07:49:15.369Z,93.30
2018-05-26T07:51:43.409Z,92.70
2018-05-26T07:54:11.581Z,92.30
2018-05-26T07:56:39.270Z,92.20
2018-05-26T07:59:11.020Z,92.70
2018-05-26T08:01:39.146Z,92.90
2018-05-26T08:04:07.420Z,93.20
2018-05-26T08:06:34.897Z,92.60
2018-05-26T08:09:02.401Z,93.20
2018-05-26T08:11:30.595Z,92.70
2018-05-26T08:13:58.078Z,92.40
2018-05-26T08:16:25.596Z,91.90
2018-05-26T08:18:54.074Z,90.90
2018-05-26T08:21:21.574Z,91.10
2018-05-26T08:23:49.064Z,91.50
2018-05-26T08:26:16.529Z,90.90
2018-05-26T08:28:44.045Z,91.80
2018-05-26T08:31:12.984Z,90.60
2018-05-26T08:33:40.821Z,91.80
2018-05-26T08:36:08.311Z,91.00
2018-05-26T08:38:35.820Z,92.00
2018-05-26T08:41:04.101Z,90.80
2018-05-26T08:43:32.566Z,90.80
2018-05-26T08:46:00.831Z,90.70
2018-05-26T08:48:28.376Z,90.60
2018-05-26T08:50:55.875Z,90.20
2018-05-26T08:53:24.239Z,90.80
2018-05-26T08:55:51.711Z,91.30
2018-05-26T08:58:20.379Z,92.20
2018-05-26T09:00:48.650Z,91.70
2018-05-26T09:03:16.130Z,91.70
2018-05-26T09:05:43.637Z,91.10
2018-05-26T09:08:11.153Z,91.50
2018-05-26T09:10:38.652Z,89.10
2018-05-26T09:13:06.194Z,90.40
2018-05-26T09:15:33.722Z,90.70
2018-05-26T09:18:02.153Z,89.70
2018-05-26T09:20:29.666Z,90.40
2018-05-26T09:22:57.143Z,91.90
2018-05-26T09:25:25.262Z,91.30
2018-05-26T09:27:54.095Z,92.60
2018-05-26T09:30:22.296Z,91.20
2018-05-26T09:32:49.767Z,90.90
2018-05-26T09:35:18.307Z,92.60
2018-05-26T09:37:45.841Z,91.70
2018-05-26T09:40:14.138Z,92.10
2018-05-26T09:42:42.976Z,92.10
2018-05-26T09:45:10.454Z,92.20
2018-05-26T09:47:38.164Z,92.90
2018-05-26T09:50:05.673Z,92.00
2018-05-26T09:52:34.597Z,92.30
2018-05-26T09:55:03.841Z,90.70
2018-05-26T09:57:31.300Z,90.70
2018-05-26T09:59:58.790Z,90.50
2018-05-26T10:02:27.553Z,90.10
2018-05-26T10:04:55.089Z,90.60
2018-05-26T10:07:23.111Z,90.50
2018-05-26T10:09:50.652Z,90.90
2018-05-26T10:12:18.122Z,89.70
2018-05-26T10:14:46.455Z,90.60
2018-05-26T10:17:13.938Z,90.50
2018-05-26T10:19:42.040Z,90.60
2018-05-26T10:22:09.840Z,90.50
2018-05-26T10:24:37.452Z,90.10
2018-05-26T10:27:04.969Z,88.60
2018-05-26T10:29:33.780Z,86.90
2018-05-26T10:32:04.934Z,86.80
2018-05-26T10:34:32.472Z,89.40
2018-05-26T10:37:00.010Z,90.40
2018-05-26T10:39:27.542Z,87.20
2018-05-26T10:41:55.027Z,87.90
2018-05-26T10:44:24.014Z,88.80
2018-05-26T10:46:51.510Z,89.10
2018-05-26T10:49:20.646Z,88.40
2018-05-26T10:51:49.927Z,88.40
2018-05-26T10:54:17.437Z,87.90
2018-05-26T10:56:46.196Z,81.20
2018-05-26T10:59:13.675Z,85.30
2018-05-26T11:01:41.159Z,86.30
2018-05-26T11:04:08.753Z,86.50
2018-05-26T11:06:48.663Z,86.50
2018-05-26T11:09:16.154Z,88.50
2018-05-26T11:11:44.391Z,88.40
2018-05-26T11:14:11.899Z,88.50
2018-05-26T11:16:39.389Z,89.40
2018-05-26T11:19:06.854Z,90.30
2018-05-26T11:21:34.370Z,89.80
2018-05-26T11:24:02.062Z,90.30
2018-05-26T11:26:31.447Z,86.60
2018-05-26T11:28:59.044Z,87.20
2018-05-26T11:31:30.591Z,86.80
2018-05-26T11:33:58.135Z,86.70
2018-05-26T11:36:27.533Z,88.50
2018-05-26T11:38:56.192Z,89.60
2018-05-26T11:41:24.250Z,90.10
2018-05-26T11:43:55.139Z,90.10
2018-05-26T11:46:22.697Z,90.10
2018-05-26T11:48:55.701Z,90.10
2018-05-26T11:51:25.914Z,82.80
2018-05-26T11:53:57.459Z,82.20
2018-05-26T11:56:25.839Z,87.10
2018-05-26T11:59:07.477Z,86.00
2018-05-26T12:01:34.960Z,85.20
2018-05-26T12:04:02.463Z,80.20
2018-05-26T12:06:29.980Z,83.50
2018-05-26T12:08:57.511Z,86.40
2018-05-26T12:11:25.609Z,83.10
2018-05-26T12:13:55.285Z,81.60
2018-05-26T12:16:22.897Z,79.90
2018-05-26T12:18:50.342Z,79.70
2018-05-26T12:21:17.862Z,75.90
2018-05-26T12:23:45.444Z,77.40
2018-05-26T12:26:12.999Z,79.20
2018-05-26T12:28:43.817Z,76.60
2018-05-26T12:31:12.068Z,78.00
2018-05-26T12:33:39.587Z,77.90
2018-05-26T12:36:07.833Z,76.90
2018-05-26T12:38:35.333Z,76.90
2018-05-26T12:41:02.817Z,77.60
2018-05-26T12:43:30.819Z,79.80
2018-05-26T12:45:58.302Z,78.10
2018-05-26T12:48:26.051Z,80.30
2018-05-26T12:50:53.577Z,77.00
2018-05-26T12:53:21.086Z,78.60
2018-05-26T12:55:48.568Z,79.30
2018-05-26T12:58:17.353Z,75.00
2018-05-26T13:00:44.891Z,75.10
2018-05-26T13:03:13.163Z,72.80
2018-05-26T13:05:42.153Z,73.20
2018-05-26T13:08:09.650Z,74.30
2018-05-26T13:10:37.147Z,78.50
2018-05-26T13:13:05.393Z,76.60
2018-05-26T13:15:32.886Z,76.30
2018-05-26T13:18:01.145Z,78.10
2018-05-26T13:23:23.181Z,75.20
2018-05-26T13:25:50.675Z,75.20
2018-05-26T13:28:18.158Z,72.50
2018-05-26T13:30:46.327Z,72.00
2018-05-26T13:33:13.831Z,72.30
2018-05-26T13:35:41.314Z,68.30
2018-05-26T13:38:08.791Z,67.70
2018-05-26T13:40:36.323Z,67.40
2018-05-26T13:43:04.927Z,69.20
2018-05-26T13:45:34.789Z,69.10
2018-05-26T13:48:02.294Z,69.10
2018-05-26T13:50:29.875Z,66.40
2018-05-26T13:52:57.965Z,68.10
2018-05-26T13:55:25.433Z,69.30
2018-05-26T13:57:52.969Z,67.60
2018-05-26T14:00:20.475Z,65.10
2018-05-26T14:02:47.988Z,62.80
2018-05-26T14:05:15.459Z,64.20
2018-05-26T14:07:43.807Z,64.60
2018-05-26T14:10:11.302Z,64.40
2018-05-26T14:12:38.797Z,66.90
2018-05-26T14:15:07.944Z,64.30
2018-05-26T14:17:35.415Z,64.30
2018-05-26T14:20:02.921Z,61.90
2018-05-26T14:22:31.247Z,61.60
2018-05-26T14:24:59.422Z,63.20
2018-05-26T14:27:26.954Z,64.30
2018-05-26T14:29:54.441Z,65.70
2018-05-26T14:32:21.944Z,63.00
2018-05-26T14:34:49.438Z,61.70
2018-05-26T14:37:17.564Z,63.40
2018-05-26T14:39:45.090Z,63.50
2018-05-26T14:42:12.621Z,63.10
2018-05-26T14:44:42.450Z,61.50
2018-05-26T14:47:10.044Z,61.00
2018-05-26T14:49:37.544Z,60.40
2018-05-26T14:52:05.990Z,59.20
2018-05-26T14:54:33.465Z,61.20
2018-05-26T14:57:01.041Z,62.50
2018-05-26T14:59:29.904Z,60.40
2018-05-26T15:01:57.408Z,59.20
2018-05-26T15:04:24.993Z,60.10
2018-05-26T15:06:53.814Z,60.30
2018-05-26T15:09:21.830Z,57.60
2018-05-26T15:11:49.320Z,58.30
2018-05-26T15:14:18.139Z,56.80
2018-05-26T15:16:45.676Z,55.40
2018-05-26T15:19:16.796Z,57.10
2018-05-26T15:21:46.011Z,57.50
2018-05-26T15:24:15.619Z,57.00
2018-05-26T15:26:43.151Z,57.80
2018-05-26T15:29:10.721Z,57.40
2018-05-26T15:31:38.234Z,56.80
2018-05-26T15:34:05.753Z,58.10
2018-05-26T15:36:33.688Z,60.20
2018-05-26T15:39:01.176Z,59.00
2018-05-26T15:41:28.704Z,59.00
2018-05-26T15:43:56.194Z,56.60
2018-05-26T15:46:23.800Z,58.20
2018-05-26T15:48:51.845Z,59.50
2018-05-26T15:51:19.340Z,58.90
2018-05-26T15:53:51.171Z,59.70
2018-05-26T15:56:18.663Z,57.10
2018-05-26T15:58:47.322Z,56.00
2018-05-26T16:01:14.850Z,56.20
2018-05-26T16:03:42.417Z,56.70
2018-05-26T16:06:10.643Z,58.20
2018-05-26T16:08:38.147Z,58.10
2018-05-26T16:11:06.382Z,63.40
2018-05-26T16:13:34.445Z,63.30
2018-05-26T16:16:01.940Z,63.50
2018-05-26T16:18:30.168Z,62.80
2018-05-26T16:20:58.504Z,62.70
2018-05-26T16:23:26.703Z,64.30
2018-05-26T16:25:54.171Z,64.30
2018-05-26T16:28:21.659Z,64.60
2018-05-26T16:30:49.136Z,66.60
2018-05-26T16:33:16.642Z,67.50
2018-05-26T16:35:44.832Z,69.20
2018-05-26T16:38:12.332Z,70.00
2018-05-26T16:40:40.607Z,70.60
2018-05-26T16:43:08.129Z,70.30
2018-05-26T16:45:35.665Z,72.70
2018-05-26T16:48:03.162Z,69.80
2018-05-26T16:50:30.968Z,68.10
2018-05-26T16:52:59.236Z,70.80
2018-05-26T16:55:26.717Z,70.70
2018-05-26T16:57:54.213Z,72.30
2018-05-26T17:00:21.697Z,73.00
2018-05-26T17:02:50.032Z,74.10
2018-05-26T17:05:17.556Z,73.90
2018-05-26T17:07:45.048Z,73.80
2018-05-26T17:10:12.548Z,73.70
2018-05-26T17:12:40.012Z,74.40
2018-05-26T17:15:08.263Z,74.90
2018-05-26T17:17:35.757Z,74.80
2018-05-26T17:20:03.249Z,73.60
2018-05-26T17:22:30.776Z,72.80
2018-05-26T17:24:58.276Z,73.00
2018-05-26T17:27:25.782Z,74.30
2018-05-26T17:29:53.854Z,73.80
2018-05-26T17:32:21.348Z,74.50
2018-05-26T17:34:48.854Z,75.40
2018-05-26T17:37:16.466Z,76.10
2018-05-26T17:39:43.956Z,77.30
2018-05-26T17:42:11.462Z,79.20
2018-05-26T17:44:38.953Z,80.00
2018-05-26T17:47:09.713Z,79.80
2018-05-26T17:49:37.217Z,79.70
2018-05-26T17:52:05.690Z,79.80
2018-05-26T17:54:33.275Z,79.50
2018-05-26T17:57:02.094Z,79.80
2018-05-26T17:59:29.652Z,79.60
2018-05-26T18:01:57.881Z,79.60
2018-05-26T18:04:25.429Z,79.40
2018-05-26T18:06:52.986Z,80.80
2018-05-26T18:09:21.411Z,81.00
2018-05-26T18:11:49.294Z,80.60
2018-05-26T18:14:17.067Z,80.90
2018-05-26T18:16:44.572Z,82.00
2018-05-26T18:19:12.056Z,81.90
2018-05-26T18:21:39.541Z,82.40
2018-05-26T18:24:07.286Z,82.80
2018-05-26T18:26:34.770Z,82.20
2018-05-26T18:29:02.694Z,82.20
2018-05-26T18:31:30.327Z,82.40
2018-05-26T18:33:57.798Z,81.90
2018-05-26T18:36:25.314Z,83.90
2018-05-26T18:38:52.788Z,82.90
2018-05-26T18:41:21.071Z,83.70
2018-05-26T18:43:49.453Z,83.40
2018-05-26T18:46:16.980Z,84.50
2018-05-26T18:48:44.509Z,85.20
2018-05-26T18:51:11.990Z,86.50
2018-05-26T18:53:39.483Z,86.20
2018-05-26T18:56:07.046Z,87.40
2018-05-26T18:58:34.514Z,87.90
2018-05-26T19:01:02.037Z,89.20
2018-05-26T19:03:29.540Z,89.70
2018-05-26T19:05:57.052Z,90.10
2018-05-26T19:08:24.596Z,90.10
2018-05-26T19:10:52.269Z,90.60
2018-05-26T19:13:20.557Z,91.00
2018-05-26T19:15:48.871Z,91.20
2018-05-26T19:18:16.327Z,91.10
2018-05-26T19:20:43.846Z,91.30
2018-05-26T19:23:11.394Z,91.50
2018-05-26T19:25:38.909Z,91.80
2018-05-26T19:28:06.400Z,92.50
2018-05-26T19:30:34.667Z,93.70
2018-05-26T19:33:02.177Z,93.70
2018-05-26T19:35:29.648Z,93.70
2018-05-26T19:37:57.180Z,93.80
2018-05-26T19:40:26.942Z,95.00
2018-05-26T19:42:54.464Z,94.80
2018-05-26T19:45:23.349Z,95.20
2018-05-26T19:47:51.588Z,95.40
2018-05-26T19:50:19.152Z,95.30
2018-05-26T19:52:46.658Z,95.10
2018-05-26T19:55:14.257Z,95.20
2018-05-26T19:57:41.774Z,95.70
2018-05-26T20:00:09.321Z,96.10
2018-05-26T20:02:36.850Z,96.20
2018-05-26T20:05:04.429Z,96.10
2018-05-26T20:07:32.787Z,96.40
2018-05-26T20:10:00.310Z,96.50
2018-05-26T20:12:27.809Z,96.50
2018-05-26T20:14:55.322Z,97.20
2018-05-26T20:17:22.809Z,97.90
2018-05-26T20:19:50.853Z,98.50
2018-05-26T20:22:18.359Z,97.90
2018-05-26T20:24:45.860Z,97.80
2018-05-26T20:27:13.381Z,98.10
2018-05-26T20:29:41.630Z,98.60
2018-05-26T20:32:09.118Z,98.60
2018-05-26T20:34:36.618Z,98.60
2018-05-26T20:37:04.492Z,99.20
2018-05-26T20:39:31.982Z,99.40
2018-05-26T20:41:59.497Z,99.80
2018-05-26T20:44:27.005Z,99.90
2018-05-26T20:46:54.507Z,99.90
2018-05-26T20:49:23.110Z,99.90
2018-05-26T20:51:50.666Z,99.90
2018-05-26T20:54:18.126Z,99.90
2018-05-26T20:56:45.610Z,99.90
2018-05-26T20:59:13.129Z,99.90
2018-05-26T21:01:40.626Z,99.90
2018-05-26T21:04:08.202Z,99.90
2018-05-26T21:06:36.515Z,99.90
2018-05-26T21:09:04.021Z,99.90
2018-05-26T21:11:31.527Z,99.90
2018-05-26T21:13:59.162Z,99.90
2018-05-26T21:16:26.975Z,99.90
2018-05-26T21:18:54.536Z,99.90
2018-05-26T21:21:22.122Z,99.90
2018-05-26T21:23:49.663Z,99.90
2018-05-26T21:26:18.015Z,99.90
2018-05-26T21:28:45.613Z,99.90
2018-05-26T21:31:13.939Z,99.90
2018-05-26T21:33:42.467Z,99.90
2018-05-26T21:36:09.994Z,99.90
2018-05-26T21:38:37.494Z,99.90
2018-05-26T21:41:05.007Z,99.90
2018-05-26T21:43:32.493Z,99.90
2018-05-26T21:45:59.974Z,99.90
2018-05-26T21:48:27.535Z,99.90
2018-05-26T21:50:55.026Z,99.90
2018-05-26T21:53:23.284Z,99.90
2018-05-26T21:55:51.550Z,99.90
2018-05-26T21:58:19.085Z,99.90
2018-05-26T22:00:46.641Z,99.90
2018-05-26T22:03:14.236Z,99.90
2018-05-26T22:05:43.230Z,99.90
2018-05-26T22:08:28.359Z,99.90
2018-05-26T22:10:55.855Z,99.90
2018-05-26T22:13:23.343Z,99.90
2018-05-26T22:15:50.843Z,99.90
2018-05-26T22:18:18.374Z,99.90
2018-05-26T22:20:46.530Z,99.90
2018-05-26T22:23:14.046Z,99.90
2018-05-26T22:25:41.542Z,99.90
2018-05-26T22:28:09.043Z,99.90
2018-05-26T22:30:36.556Z,99.90
2018-05-26T22:33:04.040Z,99.90
2018-05-26T22:35:31.683Z,99.90
2018-05-26T22:37:59.170Z,99.90
2018-05-26T22:40:28.348Z,99.90
2018-05-26T22:42:55.866Z,99.90
2018-05-26T22:45:23.371Z,99.90
2018-05-26T22:47:50.859Z,99.90
2018-05-26T22:50:18.342Z,99.90
2018-05-26T22:52:45.826Z,99.90
2018-05-26T22:55:13.333Z,99.90
2018-05-26T22:57:40.813Z,99.90
2018-05-26T23:00:08.300Z,99.90
2018-05-26T23:02:35.829Z,99.90
2018-05-26T23:05:03.309Z,99.90
2018-05-26T23:07:30.822Z,99.90
2018-05-26T23:09:58.296Z,99.90
2018-05-26T23:12:25.902Z,99.90
2018-05-26T23:14:53.411Z,99.90
2018-05-26T23:17:20.882Z,99.90
2018-05-26T23:19:48.391Z,99.90
2018-05-26T23:22:15.905Z,99.90
2018-05-26T23:24:43.385Z,99.90
2018-05-26T23:27:12.149Z,99.90
2018-05-26T23:29:40.420Z,99.90
2018-05-26T23:32:07.971Z,99.90
2018-05-26T23:34:35.461Z,99.90
2018-05-26T23:37:02.945Z,99.90
2018-05-26T23:39:30.425Z,99.90
2018-05-26T23:41:57.903Z,99.90
2018-05-26T23:44:25.442Z,99.90
2018-05-26T23:46:52.886Z,99.90
2018-05-26T23:49:20.364Z,99.90
2018-05-26T23:51:47.883Z,99.90
2018-05-26T23:54:15.369Z,99.90
2018-05-26T23:56:42.879Z,99.90
2018-05-26T23:59:10.452Z,99.90
